sensor_id;sensor_type;location;lat;lon;timestamp;temperature;humidity
21582;DHT22;10952;50.836;4.348;2023-09-08T00:02:08;25.00;99.90
21582;DHT22;10952;50.836;4.348;2023-09-08T00:04:34;24.90;99.90
21582;DHT22;10952;50.836;4.348;2023-09-08T00:07:01;24.80;99.90
21582;DHT22;10952;50.836;4.348;2023-09-08T00:09:27;24.80;99.90
21582;DHT22;10952;50.836;4.348;2023-09-08T00:11:53;24.80;99.90
21582;DHT22;10952;50.836;4.348;2023-09-08T00:14:20;24.70;99.90
21582;DHT22;10952;50.836;4.348;2023-09-08T00:16:45;24.70;99.90
21582;DHT22;10952;50.836;4.348;2023-09-08T00:19:11;24.60;99.90
21582;DHT22;10952;50.836;4.348;2023-09-08T00:21:37;24.60;99.90
21582;DHT22;10952;50.836;4.348;2023-09-08T00:24:03;24.60;99.90
21582;DHT22;10952;50.836;4.348;2023-09-08T00:26:29;24.60;99.90
21582;DHT22;10952;50.836;4.348;2023-09-08T00:28:55;24.60;99.90
21582;DHT22;10952;50.836;4.348;2023-09-08T00:31:21;24.60;99.90
21582;DHT22;10952;50.836;4.348;2023-09-08T00:33:47;24.50;99.90
21582;DHT22;10952;50.836;4.348;2023-09-08T00:36:12;24.50;99.90
21582;DHT22;10952;50.836;4.348;2023-09-08T00:38:38;24.50;99.90
21582;DHT22;10952;50.836;4.348;2023-09-08T00:41:05;24.50;99.90
21582;DHT22;10952;50.836;4.348;2023-09-08T00:43:31;24.60;99.90
21582;DHT22;10952;50.836;4.348;2023-09-08T00:45:57;24.50;99.90
21582;DHT22;10952;50.836;4.348;2023-09-08T00:48:28;24.40;99.90
21582;DHT22;10952;50.836;4.348;2023-09-08T00:50:54;24.30;99.90
21582;DHT22;10952;50.836;4.348;2023-09-08T00:53:21;24.30;99.90
21582;DHT22;10952;50.836;4.348;2023-09-08T00:55:47;24.40;99.90
21582;DHT22;10952;50.836;4.348;2023-09-08T00:58:14;24.40;99.90
21582;DHT22;10952;50.836;4.348;2023-09-08T01:00:39;24.30;99.90
21582;DHT22;10952;50.836;4.348;2023-09-08T01:03:05;24.30;99.90
21582;DHT22;10952;50.836;4.348;2023-09-08T01:05:31;24.20;99.90
21582;DHT22;10952;50.836;4.348;2023-09-08T01:07:59;24.20;99.90
21582;DHT22;10952;50.836;4.348;2023-09-08T01:10:25;24.20;99.90
21582;DHT22;10952;50.836;4.348;2023-09-08T01:12:51;24.10;99.90
21582;DHT22;10952;50.836;4.348;2023-09-08T01:15:16;24.10;99.90
21582;DHT22;10952;50.836;4.348;2023-09-08T01:17:42;24.10;99.90
21582;DHT22;10952;50.836;4.348;2023-09-08T01:20:48;24.00;99.90
21582;DHT22;10952;50.836;4.348;2023-09-08T01:26:08;23.70;99.90
21582;DHT22;10952;50.836;4.348;2023-09-08T01:28:35;23.80;99.90
21582;DHT22;10952;50.836;4.348;2023-09-08T01:31:01;23.80;99.90
21582;DHT22;10952;50.836;4.348;2023-09-08T01:33:27;23.70;99.90
21582;DHT22;10952;50.836;4.348;2023-09-08T01:35:54;23.70;99.90
21582;DHT22;10952;50.836;4.348;2023-09-08T01:38:21;23.70;99.90
21582;DHT22;10952;50.836;4.348;2023-09-08T01:40:47;23.70;99.90
21582;DHT22;10952;50.836;4.348;2023-09-08T01:43:13;23.70;99.90
21582;DHT22;10952;50.836;4.348;2023-09-08T01:45:38;23.70;99.90
21582;DHT22;10952;50.836;4.348;2023-09-08T01:48:04;23.80;99.90
21582;DHT22;10952;50.836;4.348;2023-09-08T01:50:30;23.70;99.90
21582;DHT22;10952;50.836;4.348;2023-09-08T01:52:55;23.70;99.90
21582;DHT22;10952;50.836;4.348;2023-09-08T01:55:21;23.60;99.90
21582;DHT22;10952;50.836;4.348;2023-09-08T01:57:47;23.60;99.90
21582;DHT22;10952;50.836;4.348;2023-09-08T02:00:13;23.60;99.90
21582;DHT22;10952;50.836;4.348;2023-09-08T02:02:39;23.60;99.90
21582;DHT22;10952;50.836;4.348;2023-09-08T02:05:05;23.60;99.90
21582;DHT22;10952;50.836;4.348;2023-09-08T02:07:31;23.50;99.90
21582;DHT22;10952;50.836;4.348;2023-09-08T02:09:57;23.50;99.90
21582;DHT22;10952;50.836;4.348;2023-09-08T02:12:22;23.50;99.90
21582;DHT22;10952;50.836;4.348;2023-09-08T02:14:48;23.50;99.90
21582;DHT22;10952;50.836;4.348;2023-09-08T02:17:14;23.50;99.90
21582;DHT22;10952;50.836;4.348;2023-09-08T02:19:39;23.50;99.90
21582;DHT22;10952;50.836;4.348;2023-09-08T02:22:05;23.50;99.90
21582;DHT22;10952;50.836;4.348;2023-09-08T02:24:31;23.60;99.90
21582;DHT22;10952;50.836;4.348;2023-09-08T02:26:56;23.60;99.90
21582;DHT22;10952;50.836;4.348;2023-09-08T02:29:22;23.60;99.90
21582;DHT22;10952;50.836;4.348;2023-09-08T02:31:48;23.50;99.90
21582;DHT22;10952;50.836;4.348;2023-09-08T02:34:14;23.50;99.90
21582;DHT22;10952;50.836;4.348;2023-09-08T02:36:39;23.60;99.90
21582;DHT22;10952;50.836;4.348;2023-09-08T02:39:05;23.60;99.90
21582;DHT22;10952;50.836;4.348;2023-09-08T02:41:32;23.60;99.90
21582;DHT22;10952;50.836;4.348;2023-09-08T02:43:58;23.60;99.90
21582;DHT22;10952;50.836;4.348;2023-09-08T02:46:23;23.60;99.90
21582;DHT22;10952;50.836;4.348;2023-09-08T02:48:50;23.60;99.90
21582;DHT22;10952;50.836;4.348;2023-09-08T02:51:16;23.60;99.90
21582;DHT22;10952;50.836;4.348;2023-09-08T02:53:42;23.70;99.90
21582;DHT22;10952;50.836;4.348;2023-09-08T02:56:07;23.70;99.90
21582;DHT22;10952;50.836;4.348;2023-09-08T02:58:35;23.60;99.90
21582;DHT22;10952;50.836;4.348;2023-09-08T03:01:26;23.60;99.90
21582;DHT22;10952;50.836;4.348;2023-09-08T03:03:52;23.50;99.90
21582;DHT22;10952;50.836;4.348;2023-09-08T03:06:19;23.50;99.90
21582;DHT22;10952;50.836;4.348;2023-09-08T03:08:48;23.40;99.90
21582;DHT22;10952;50.836;4.348;2023-09-08T03:11:14;23.40;99.90
21582;DHT22;10952;50.836;4.348;2023-09-08T03:13:39;23.40;99.90
21582;DHT22;10952;50.836;4.348;2023-09-08T03:16:06;23.30;99.90
21582;DHT22;10952;50.836;4.348;2023-09-08T03:18:33;23.20;99.90
21582;DHT22;10952;50.836;4.348;2023-09-08T03:20:59;23.20;99.90
21582;DHT22;10952;50.836;4.348;2023-09-08T03:23:26;23.10;99.90
21582;DHT22;10952;50.836;4.348;2023-09-08T03:25:51;23.20;99.90
21582;DHT22;10952;50.836;4.348;2023-09-08T03:28:18;23.10;99.90
21582;DHT22;10952;50.836;4.348;2023-09-08T03:30:44;23.20;99.90
21582;DHT22;10952;50.836;4.348;2023-09-08T03:33:09;23.20;99.90
21582;DHT22;10952;50.836;4.348;2023-09-08T03:35:35;23.30;99.90
21582;DHT22;10952;50.836;4.348;2023-09-08T03:38:01;23.30;99.90
21582;DHT22;10952;50.836;4.348;2023-09-08T03:40:26;23.30;99.90
21582;DHT22;10952;50.836;4.348;2023-09-08T03:42:52;23.40;99.90
21582;DHT22;10952;50.836;4.348;2023-09-08T03:45:18;23.40;99.90
21582;DHT22;10952;50.836;4.348;2023-09-08T03:47:43;23.30;99.90
21582;DHT22;10952;50.836;4.348;2023-09-08T03:50:09;23.30;99.90
21582;DHT22;10952;50.836;4.348;2023-09-08T03:52:35;23.30;99.90
21582;DHT22;10952;50.836;4.348;2023-09-08T03:55:01;23.40;99.90
21582;DHT22;10952;50.836;4.348;2023-09-08T03:57:27;23.30;99.90
21582;DHT22;10952;50.836;4.348;2023-09-08T03:59:52;23.30;99.90
21582;DHT22;10952;50.836;4.348;2023-09-08T04:02:18;23.20;99.90
21582;DHT22;10952;50.836;4.348;2023-09-08T04:04:44;23.20;99.90
21582;DHT22;10952;50.836;4.348;2023-09-08T04:07:09;23.20;99.90
21582;DHT22;10952;50.836;4.348;2023-09-08T04:09:35;23.10;99.90
21582;DHT22;10952;50.836;4.348;2023-09-08T04:12:01;23.10;99.90
21582;DHT22;10952;50.836;4.348;2023-09-08T04:14:27;23.10;99.90
21582;DHT22;10952;50.836;4.348;2023-09-08T04:16:54;23.10;99.90
21582;DHT22;10952;50.836;4.348;2023-09-08T04:19:19;23.10;99.90
21582;DHT22;10952;50.836;4.348;2023-09-08T04:21:45;23.10;99.90
21582;DHT22;10952;50.836;4.348;2023-09-08T04:24:10;23.00;99.90
21582;DHT22;10952;50.836;4.348;2023-09-08T04:26:37;23.00;99.90
21582;DHT22;10952;50.836;4.348;2023-09-08T04:29:02;23.00;99.90
21582;DHT22;10952;50.836;4.348;2023-09-08T04:31:28;23.00;99.90
21582;DHT22;10952;50.836;4.348;2023-09-08T04:33:54;23.00;99.90
21582;DHT22;10952;50.836;4.348;2023-09-08T04:36:20;23.00;99.90
21582;DHT22;10952;50.836;4.348;2023-09-08T04:38:45;23.00;99.90
21582;DHT22;10952;50.836;4.348;2023-09-08T04:41:11;23.00;99.90
21582;DHT22;10952;50.836;4.348;2023-09-08T04:43:37;23.00;99.90
21582;DHT22;10952;50.836;4.348;2023-09-08T04:46:03;22.90;99.90
21582;DHT22;10952;50.836;4.348;2023-09-08T04:48:29;23.00;99.90
21582;DHT22;10952;50.836;4.348;2023-09-08T04:50:56;22.90;99.90
21582;DHT22;10952;50.836;4.348;2023-09-08T04:53:21;22.90;99.90
21582;DHT22;10952;50.836;4.348;2023-09-08T04:55:47;22.90;99.90
21582;DHT22;10952;50.836;4.348;2023-09-08T04:58:12;22.90;99.90
21582;DHT22;10952;50.836;4.348;2023-09-08T05:00:38;22.90;99.90
21582;DHT22;10952;50.836;4.348;2023-09-08T05:03:05;22.90;99.90
21582;DHT22;10952;50.836;4.348;2023-09-08T05:05:31;23.00;99.90
21582;DHT22;10952;50.836;4.348;2023-09-08T05:07:57;23.00;99.90
21582;DHT22;10952;50.836;4.348;2023-09-08T05:10:23;23.10;99.90
21582;DHT22;10952;50.836;4.348;2023-09-08T05:12:49;22.90;99.90
21582;DHT22;10952;50.836;4.348;2023-09-08T05:15:15;22.90;99.90
21582;DHT22;10952;50.836;4.348;2023-09-08T05:17:42;22.90;99.90
21582;DHT22;10952;50.836;4.348;2023-09-08T05:20:09;22.90;99.90
21582;DHT22;10952;50.836;4.348;2023-09-08T05:22:34;22.80;99.90
21582;DHT22;10952;50.836;4.348;2023-09-08T05:25:00;22.80;99.90
21582;DHT22;10952;50.836;4.348;2023-09-08T05:27:26;22.70;99.90
21582;DHT22;10952;50.836;4.348;2023-09-08T05:29:52;22.70;99.90
21582;DHT22;10952;50.836;4.348;2023-09-08T05:32:17;22.70;99.90
21582;DHT22;10952;50.836;4.348;2023-09-08T05:34:43;22.70;99.90
21582;DHT22;10952;50.836;4.348;2023-09-08T05:37:09;22.70;99.90
21582;DHT22;10952;50.836;4.348;2023-09-08T05:39:35;22.70;99.90
21582;DHT22;10952;50.836;4.348;2023-09-08T05:42:00;22.70;99.90
21582;DHT22;10952;50.836;4.348;2023-09-08T05:44:26;22.70;99.90
21582;DHT22;10952;50.836;4.348;2023-09-08T05:46:52;22.70;99.90
21582;DHT22;10952;50.836;4.348;2023-09-08T05:49:17;22.70;99.90
21582;DHT22;10952;50.836;4.348;2023-09-08T05:51:44;22.70;99.90
21582;DHT22;10952;50.836;4.348;2023-09-08T05:54:10;22.80;99.90
21582;DHT22;10952;50.836;4.348;2023-09-08T05:56:37;22.80;99.90
21582;DHT22;10952;50.836;4.348;2023-09-08T05:59:03;22.80;99.90
21582;DHT22;10952;50.836;4.348;2023-09-08T06:01:30;22.80;99.90
21582;DHT22;10952;50.836;4.348;2023-09-08T06:03:56;22.80;99.90
21582;DHT22;10952;50.836;4.348;2023-09-08T06:06:22;22.80;99.90
21582;DHT22;10952;50.836;4.348;2023-09-08T06:08:48;22.90;99.90
21582;DHT22;10952;50.836;4.348;2023-09-08T06:11:14;22.80;99.90
21582;DHT22;10952;50.836;4.348;2023-09-08T06:13:39;22.80;99.90
21582;DHT22;10952;50.836;4.348;2023-09-08T06:16:05;22.80;99.90
21582;DHT22;10952;50.836;4.348;2023-09-08T06:18:31;22.60;99.90
21582;DHT22;10952;50.836;4.348;2023-09-08T06:20:57;22.60;99.90
21582;DHT22;10952;50.836;4.348;2023-09-08T06:23:23;22.60;99.90
21582;DHT22;10952;50.836;4.348;2023-09-08T06:25:49;22.70;99.90
21582;DHT22;10952;50.836;4.348;2023-09-08T06:28:15;22.70;99.90
21582;DHT22;10952;50.836;4.348;2023-09-08T06:30:41;22.70;99.90
21582;DHT22;10952;50.836;4.348;2023-09-08T06:33:10;22.70;99.90
21582;DHT22;10952;50.836;4.348;2023-09-08T06:35:35;22.70;99.90
21582;DHT22;10952;50.836;4.348;2023-09-08T06:38:01;22.90;99.90
21582;DHT22;10952;50.836;4.348;2023-09-08T06:40:29;23.00;99.90
21582;DHT22;10952;50.836;4.348;2023-09-08T06:42:55;23.00;99.90
21582;DHT22;10952;50.836;4.348;2023-09-08T06:45:21;22.90;99.90
21582;DHT22;10952;50.836;4.348;2023-09-08T06:47:46;22.90;99.90
21582;DHT22;10952;50.836;4.348;2023-09-08T06:50:12;23.10;99.90
21582;DHT22;10952;50.836;4.348;2023-09-08T06:52:37;23.10;99.90
21582;DHT22;10952;50.836;4.348;2023-09-08T06:55:03;23.00;99.90
21582;DHT22;10952;50.836;4.348;2023-09-08T06:57:30;23.00;99.90
21582;DHT22;10952;50.836;4.348;2023-09-08T06:59:56;23.00;99.90
21582;DHT22;10952;50.836;4.348;2023-09-08T07:02:21;23.00;99.90
21582;DHT22;10952;50.836;4.348;2023-09-08T07:04:47;23.10;99.90
21582;DHT22;10952;50.836;4.348;2023-09-08T07:07:12;23.10;99.90
21582;DHT22;10952;50.836;4.348;2023-09-08T07:09:39;23.20;99.90
21582;DHT22;10952;50.836;4.348;2023-09-08T07:12:05;23.20;99.90
21582;DHT22;10952;50.836;4.348;2023-09-08T07:14:34;23.40;99.90
21582;DHT22;10952;50.836;4.348;2023-09-08T07:17:00;23.50;99.90
21582;DHT22;10952;50.836;4.348;2023-09-08T07:19:26;23.50;99.90
21582;DHT22;10952;50.836;4.348;2023-09-08T07:21:52;23.60;99.90
21582;DHT22;10952;50.836;4.348;2023-09-08T07:24:18;23.70;99.90
21582;DHT22;10952;50.836;4.348;2023-09-08T07:26:44;23.70;99.90
21582;DHT22;10952;50.836;4.348;2023-09-08T07:29:09;23.80;99.90
21582;DHT22;10952;50.836;4.348;2023-09-08T07:31:35;23.80;99.90
21582;DHT22;10952;50.836;4.348;2023-09-08T07:34:00;23.90;99.90
21582;DHT22;10952;50.836;4.348;2023-09-08T07:36:26;23.90;99.90
21582;DHT22;10952;50.836;4.348;2023-09-08T07:38:52;24.00;99.90
21582;DHT22;10952;50.836;4.348;2023-09-08T07:41:17;24.10;99.90
21582;DHT22;10952;50.836;4.348;2023-09-08T07:43:43;24.10;99.90
21582;DHT22;10952;50.836;4.348;2023-09-08T07:46:11;24.10;99.90
21582;DHT22;10952;50.836;4.348;2023-09-08T07:48:36;24.20;99.90
21582;DHT22;10952;50.836;4.348;2023-09-08T07:51:02;24.30;99.90
21582;DHT22;10952;50.836;4.348;2023-09-08T07:53:28;24.30;99.90
21582;DHT22;10952;50.836;4.348;2023-09-08T07:55:54;24.50;99.90
21582;DHT22;10952;50.836;4.348;2023-09-08T07:58:19;24.50;99.90
21582;DHT22;10952;50.836;4.348;2023-09-08T08:00:45;24.50;99.90
21582;DHT22;10952;50.836;4.348;2023-09-08T08:03:11;24.50;99.90
21582;DHT22;10952;50.836;4.348;2023-09-08T08:05:36;24.60;99.90
21582;DHT22;10952;50.836;4.348;2023-09-08T08:08:02;24.60;99.90
21582;DHT22;10952;50.836;4.348;2023-09-08T08:10:28;24.60;99.90
21582;DHT22;10952;50.836;4.348;2023-09-08T08:12:54;24.60;99.90
21582;DHT22;10952;50.836;4.348;2023-09-08T08:15:20;24.70;99.90
21582;DHT22;10952;50.836;4.348;2023-09-08T08:17:49;24.70;99.90
21582;DHT22;10952;50.836;4.348;2023-09-08T08:20:15;24.70;99.90
21582;DHT22;10952;50.836;4.348;2023-09-08T08:22:45;24.70;99.90
21582;DHT22;10952;50.836;4.348;2023-09-08T08:25:11;24.80;99.90
21582;DHT22;10952;50.836;4.348;2023-09-08T08:27:39;24.80;99.90
21582;DHT22;10952;50.836;4.348;2023-09-08T08:30:06;24.90;99.90
21582;DHT22;10952;50.836;4.348;2023-09-08T08:32:32;24.90;99.90
21582;DHT22;10952;50.836;4.348;2023-09-08T08:34:58;25.10;99.90
21582;DHT22;10952;50.836;4.348;2023-09-08T08:37:23;25.10;99.90
21582;DHT22;10952;50.836;4.348;2023-09-08T08:39:49;25.10;99.90
21582;DHT22;10952;50.836;4.348;2023-09-08T08:42:15;25.10;99.90
21582;DHT22;10952;50.836;4.348;2023-09-08T08:44:41;25.10;99.90
21582;DHT22;10952;50.836;4.348;2023-09-08T08:47:10;25.20;99.90
21582;DHT22;10952;50.836;4.348;2023-09-08T08:49:36;25.20;99.90
21582;DHT22;10952;50.836;4.348;2023-09-08T08:52:02;25.30;99.90
21582;DHT22;10952;50.836;4.348;2023-09-08T08:54:38;25.40;99.90
21582;DHT22;10952;50.836;4.348;2023-09-08T08:57:04;25.50;99.90
21582;DHT22;10952;50.836;4.348;2023-09-08T08:59:30;25.60;99.90
21582;DHT22;10952;50.836;4.348;2023-09-08T09:01:58;25.70;99.90
21582;DHT22;10952;50.836;4.348;2023-09-08T09:04:25;25.80;99.90
21582;DHT22;10952;50.836;4.348;2023-09-08T09:06:53;25.90;99.90
21582;DHT22;10952;50.836;4.348;2023-09-08T09:09:19;26.00;99.90
21582;DHT22;10952;50.836;4.348;2023-09-08T09:11:45;26.00;99.90
21582;DHT22;10952;50.836;4.348;2023-09-08T09:14:11;26.10;99.90
21582;DHT22;10952;50.836;4.348;2023-09-08T09:16:43;26.20;99.90
21582;DHT22;10952;50.836;4.348;2023-09-08T09:19:20;26.40;99.90
21582;DHT22;10952;50.836;4.348;2023-09-08T09:21:52;26.40;99.90
21582;DHT22;10952;50.836;4.348;2023-09-08T09:24:36;26.40;99.90
21582;DHT22;10952;50.836;4.348;2023-09-08T09:27:05;26.50;99.90
21582;DHT22;10952;50.836;4.348;2023-09-08T09:29:35;26.70;99.90
21582;DHT22;10952;50.836;4.348;2023-09-08T09:32:08;26.70;99.90
21582;DHT22;10952;50.836;4.348;2023-09-08T09:34:34;26.80;99.90
21582;DHT22;10952;50.836;4.348;2023-09-08T09:37:00;26.80;99.90
21582;DHT22;10952;50.836;4.348;2023-09-08T09:39:28;26.80;99.90
21582;DHT22;10952;50.836;4.348;2023-09-08T09:41:55;26.80;99.90
21582;DHT22;10952;50.836;4.348;2023-09-08T09:44:21;27.00;99.90
21582;DHT22;10952;50.836;4.348;2023-09-08T09:46:47;27.10;99.90
21582;DHT22;10952;50.836;4.348;2023-09-08T09:49:14;27.10;99.90
21582;DHT22;10952;50.836;4.348;2023-09-08T09:51:44;27.30;99.90
21582;DHT22;10952;50.836;4.348;2023-09-08T09:54:11;27.40;99.90
21582;DHT22;10952;50.836;4.348;2023-09-08T09:56:38;27.50;99.90
21582;DHT22;10952;50.836;4.348;2023-09-08T09:59:05;27.40;99.90
21582;DHT22;10952;50.836;4.348;2023-09-08T10:01:33;27.50;99.90
21582;DHT22;10952;50.836;4.348;2023-09-08T10:03:59;27.70;99.90
21582;DHT22;10952;50.836;4.348;2023-09-08T10:06:26;27.60;99.90
21582;DHT22;10952;50.836;4.348;2023-09-08T10:08:52;27.70;99.90
21582;DHT22;10952;50.836;4.348;2023-09-08T10:11:21;27.80;99.90
21582;DHT22;10952;50.836;4.348;2023-09-08T10:13:51;28.00;99.90
21582;DHT22;10952;50.836;4.348;2023-09-08T10:16:19;27.90;99.90
21582;DHT22;10952;50.836;4.348;2023-09-08T10:18:47;28.10;99.90
21582;DHT22;10952;50.836;4.348;2023-09-08T10:21:16;28.20;99.90
21582;DHT22;10952;50.836;4.348;2023-09-08T10:23:54;28.40;99.90
21582;DHT22;10952;50.836;4.348;2023-09-08T10:26:26;28.50;99.90
21582;DHT22;10952;50.836;4.348;2023-09-08T10:28:54;28.60;99.90
21582;DHT22;10952;50.836;4.348;2023-09-08T10:31:25;28.70;99.90
21582;DHT22;10952;50.836;4.348;2023-09-08T10:33:55;28.90;99.90
21582;DHT22;10952;50.836;4.348;2023-09-08T10:36:22;29.10;99.90
21582;DHT22;10952;50.836;4.348;2023-09-08T10:38:49;29.10;99.90
21582;DHT22;10952;50.836;4.348;2023-09-08T10:41:26;29.20;99.90
21582;DHT22;10952;50.836;4.348;2023-09-08T10:43:57;29.60;99.90
21582;DHT22;10952;50.836;4.348;2023-09-08T10:46:26;30.50;99.90
21582;DHT22;10952;50.836;4.348;2023-09-08T10:49:01;32.10;99.90
21582;DHT22;10952;50.836;4.348;2023-09-08T10:51:29;34.50;99.90
21582;DHT22;10952;50.836;4.348;2023-09-08T10:53:54;36.50;99.90
21582;DHT22;10952;50.836;4.348;2023-09-08T10:56:20;38.00;95.70
21582;DHT22;10952;50.836;4.348;2023-09-08T10:58:51;39.30;93.00
21582;DHT22;10952;50.836;4.348;2023-09-08T11:01:21;39.90;91.30
21582;DHT22;10952;50.836;4.348;2023-09-08T11:03:53;40.40;90.10
21582;DHT22;10952;50.836;4.348;2023-09-08T11:06:20;40.80;87.70
21582;DHT22;10952;50.836;4.348;2023-09-08T11:08:49;41.30;84.60
21582;DHT22;10952;50.836;4.348;2023-09-08T11:11:19;41.50;82.90
21582;DHT22;10952;50.836;4.348;2023-09-08T11:13:45;42.10;81.20
21582;DHT22;10952;50.836;4.348;2023-09-08T11:16:13;42.10;77.90
21582;DHT22;10952;50.836;4.348;2023-09-08T11:18:39;42.00;76.70
21582;DHT22;10952;50.836;4.348;2023-09-08T11:21:08;42.70;74.40
21582;DHT22;10952;50.836;4.348;2023-09-08T11:23:34;43.10;73.80
21582;DHT22;10952;50.836;4.348;2023-09-08T11:26:00;43.20;71.10
21582;DHT22;10952;50.836;4.348;2023-09-08T11:28:27;43.30;70.20
21582;DHT22;10952;50.836;4.348;2023-09-08T11:30:54;43.40;69.40
21582;DHT22;10952;50.836;4.348;2023-09-08T11:33:21;43.30;69.80
21582;DHT22;10952;50.836;4.348;2023-09-08T11:35:54;43.40;69.40
21582;DHT22;10952;50.836;4.348;2023-09-08T11:38:27;42.80;68.40
21582;DHT22;10952;50.836;4.348;2023-09-08T11:40:54;43.20;68.40
21582;DHT22;10952;50.836;4.348;2023-09-08T11:43:20;43.30;67.90
21582;DHT22;10952;50.836;4.348;2023-09-08T11:45:46;42.60;68.00
21582;DHT22;10952;50.836;4.348;2023-09-08T11:48:14;42.30;68.20
21582;DHT22;10952;50.836;4.348;2023-09-08T11:50:43;42.80;68.00
21582;DHT22;10952;50.836;4.348;2023-09-08T11:53:09;42.80;68.20
21582;DHT22;10952;50.836;4.348;2023-09-08T11:55:35;42.60;68.80
21582;DHT22;10952;50.836;4.348;2023-09-08T11:58:02;42.80;68.70
21582;DHT22;10952;50.836;4.348;2023-09-08T12:00:29;43.10;67.70
21582;DHT22;10952;50.836;4.348;2023-09-08T12:02:55;43.20;67.70
21582;DHT22;10952;50.836;4.348;2023-09-08T12:05:25;42.70;68.90
21582;DHT22;10952;50.836;4.348;2023-09-08T12:07:52;42.70;68.40
21582;DHT22;10952;50.836;4.348;2023-09-08T12:10:19;41.90;69.50
21582;DHT22;10952;50.836;4.348;2023-09-08T12:12:51;41.80;67.70
21582;DHT22;10952;50.836;4.348;2023-09-08T12:15:34;41.40;67.00
21582;DHT22;10952;50.836;4.348;2023-09-08T12:18:02;41.30;68.60
21582;DHT22;10952;50.836;4.348;2023-09-08T12:20:29;41.00;69.10
21582;DHT22;10952;50.836;4.348;2023-09-08T12:22:59;40.50;70.30
21582;DHT22;10952;50.836;4.348;2023-09-08T12:25:25;40.20;70.30
21582;DHT22;10952;50.836;4.348;2023-09-08T12:27:54;40.10;69.70
21582;DHT22;10952;50.836;4.348;2023-09-08T12:30:24;40.00;70.90
21582;DHT22;10952;50.836;4.348;2023-09-08T12:32:56;39.40;71.20
21582;DHT22;10952;50.836;4.348;2023-09-08T12:35:23;38.60;73.50
21582;DHT22;10952;50.836;4.348;2023-09-08T12:37:56;38.50;74.30
21582;DHT22;10952;50.836;4.348;2023-09-08T12:40:22;38.60;75.00
21582;DHT22;10952;50.836;4.348;2023-09-08T12:42:48;38.40;75.40
21582;DHT22;10952;50.836;4.348;2023-09-08T12:45:13;38.20;76.10
21582;DHT22;10952;50.836;4.348;2023-09-08T12:47:39;38.00;75.90
21582;DHT22;10952;50.836;4.348;2023-09-08T12:50:05;37.90;76.40
21582;DHT22;10952;50.836;4.348;2023-09-08T12:52:31;37.60;77.20
21582;DHT22;10952;50.836;4.348;2023-09-08T12:54:57;37.60;77.50
21582;DHT22;10952;50.836;4.348;2023-09-08T12:57:23;37.60;74.90
21582;DHT22;10952;50.836;4.348;2023-09-08T12:59:48;38.00;74.70
21582;DHT22;10952;50.836;4.348;2023-09-08T13:02:17;37.70;75.70
21582;DHT22;10952;50.836;4.348;2023-09-08T13:04:43;37.90;76.20
21582;DHT22;10952;50.836;4.348;2023-09-08T13:07:18;37.60;76.70
21582;DHT22;10952;50.836;4.348;2023-09-08T13:09:44;37.30;77.50
21582;DHT22;10952;50.836;4.348;2023-09-08T13:12:10;36.30;80.20
21582;DHT22;10952;50.836;4.348;2023-09-08T13:14:38;35.60;81.90
21582;DHT22;10952;50.836;4.348;2023-09-08T13:17:04;35.20;83.10
21582;DHT22;10952;50.836;4.348;2023-09-08T13:21:56;34.50;85.40
21582;DHT22;10952;50.836;4.348;2023-09-08T13:24:21;34.40;85.80
21582;DHT22;10952;50.836;4.348;2023-09-08T13:26:48;34.40;85.70
21582;DHT22;10952;50.836;4.348;2023-09-08T13:29:14;34.30;86.50
21582;DHT22;10952;50.836;4.348;2023-09-08T13:31:40;34.10;87.80
21582;DHT22;10952;50.836;4.348;2023-09-08T13:34:06;33.90;87.50
21582;DHT22;10952;50.836;4.348;2023-09-08T13:36:32;33.70;88.60
21582;DHT22;10952;50.836;4.348;2023-09-08T13:38:57;33.60;89.40
21582;DHT22;10952;50.836;4.348;2023-09-08T13:41:24;33.60;90.20
21582;DHT22;10952;50.836;4.348;2023-09-08T13:43:50;33.50;90.30
21582;DHT22;10952;50.836;4.348;2023-09-08T13:46:16;33.50;90.30
21582;DHT22;10952;50.836;4.348;2023-09-08T13:48:42;33.40;90.20
21582;DHT22;10952;50.836;4.348;2023-09-08T13:51:08;33.40;90.40
21582;DHT22;10952;50.836;4.348;2023-09-08T13:53:33;33.40;90.10
21582;DHT22;10952;50.836;4.348;2023-09-08T13:56:00;33.40;90.50
21582;DHT22;10952;50.836;4.348;2023-09-08T13:58:26;33.40;90.80
21582;DHT22;10952;50.836;4.348;2023-09-08T14:00:51;33.10;91.10
21582;DHT22;10952;50.836;4.348;2023-09-08T14:03:17;33.00;91.20
21582;DHT22;10952;50.836;4.348;2023-09-08T14:05:44;33.00;91.50
21582;DHT22;10952;50.836;4.348;2023-09-08T14:08:10;33.00;91.70
21582;DHT22;10952;50.836;4.348;2023-09-08T14:10:36;32.70;91.90
21582;DHT22;10952;50.836;4.348;2023-09-08T14:13:01;32.60;92.20
21582;DHT22;10952;50.836;4.348;2023-09-08T14:15:27;32.60;92.40
21582;DHT22;10952;50.836;4.348;2023-09-08T14:17:53;32.60;92.30
21582;DHT22;10952;50.836;4.348;2023-09-08T14:20:19;32.60;92.50
21582;DHT22;10952;50.836;4.348;2023-09-08T14:22:44;32.60;92.40
21582;DHT22;10952;50.836;4.348;2023-09-08T14:25:10;32.50;92.90
21582;DHT22;10952;50.836;4.348;2023-09-08T14:27:36;32.40;93.40
21582;DHT22;10952;50.836;4.348;2023-09-08T14:30:04;32.20;94.10
21582;DHT22;10952;50.836;4.348;2023-09-08T14:32:30;32.20;94.20
21582;DHT22;10952;50.836;4.348;2023-09-08T14:34:56;32.40;94.20
21582;DHT22;10952;50.836;4.348;2023-09-08T14:37:22;32.50;94.20
21582;DHT22;10952;50.836;4.348;2023-09-08T14:39:48;32.50;94.40
21582;DHT22;10952;50.836;4.348;2023-09-08T14:42:14;32.50;94.50
21582;DHT22;10952;50.836;4.348;2023-09-08T14:44:41;32.50;94.70
21582;DHT22;10952;50.836;4.348;2023-09-08T14:47:07;32.50;94.60
21582;DHT22;10952;50.836;4.348;2023-09-08T14:49:34;32.60;94.60
21582;DHT22;10952;50.836;4.348;2023-09-08T14:52:00;32.70;94.30
21582;DHT22;10952;50.836;4.348;2023-09-08T14:54:25;32.70;94.70
21582;DHT22;10952;50.836;4.348;2023-09-08T14:56:51;32.60;94.70
21582;DHT22;10952;50.836;4.348;2023-09-08T14:59:17;32.50;95.10
21582;DHT22;10952;50.836;4.348;2023-09-08T15:01:43;32.50;95.30
21582;DHT22;10952;50.836;4.348;2023-09-08T15:04:10;32.60;95.40
21582;DHT22;10952;50.836;4.348;2023-09-08T15:06:36;32.80;95.10
21582;DHT22;10952;50.836;4.348;2023-09-08T15:09:02;32.80;94.30
21582;DHT22;10952;50.836;4.348;2023-09-08T15:11:28;32.70;94.70
21582;DHT22;10952;50.836;4.348;2023-09-08T15:13:54;32.80;94.80
21582;DHT22;10952;50.836;4.348;2023-09-08T15:16:20;32.90;94.70
21582;DHT22;10952;50.836;4.348;2023-09-08T15:18:47;32.90;94.80
21582;DHT22;10952;50.836;4.348;2023-09-08T15:21:13;32.80;94.70
21582;DHT22;10952;50.836;4.348;2023-09-08T15:23:39;32.70;95.10
21582;DHT22;10952;50.836;4.348;2023-09-08T15:26:04;32.70;95.30
21582;DHT22;10952;50.836;4.348;2023-09-08T15:28:30;32.80;95.10
21582;DHT22;10952;50.836;4.348;2023-09-08T15:30:56;32.80;95.00
21582;DHT22;10952;50.836;4.348;2023-09-08T15:33:22;32.80;95.00